createdAt,value
2022-08-27T00:00:29.149Z,17.17
2022-08-27T00:02:46.517Z,19.02
2022-08-27T00:05:03.496Z,19.02
2022-08-27T00:07:20.931Z,20.40
2022-08-27T00:09:38.300Z,20.63
2022-08-27T00:11:55.596Z,18.23
2022-08-27T00:14:12.905Z,17.70
2022-08-27T00:16:31.308Z,19.10
2022-08-27T00:18:48.752Z,23.00
2022-08-27T00:21:06.979Z,18.98
2022-08-27T00:23:24.320Z,22.38
2022-08-27T00:25:42.181Z,20.95
2022-08-27T00:27:59.248Z,21.42
2022-08-27T00:30:17.388Z,19.77
2022-08-27T00:32:34.697Z,19.58
2022-08-27T00:34:51.669Z,21.02
2022-08-27T00:37:09.040Z,21.33
2022-08-27T00:39:26.401Z,22.02
2022-08-27T00:41:43.342Z,22.67
2022-08-27T00:44:00.361Z,22.65
2022-08-27T00:46:20.474Z,22.08
2022-08-27T00:48:38.426Z,20.08
2022-08-27T00:50:55.665Z,20.10
2022-08-27T00:53:12.980Z,19.98
2022-08-27T00:55:30.296Z,19.05
2022-08-27T00:57:48.680Z,17.17
2022-08-27T01:00:05.731Z,19.25
2022-08-27T01:02:22.713Z,18.13
2022-08-27T01:04:39.667Z,19.88
2022-08-27T01:06:56.931Z,20.20
2022-08-27T01:09:13.958Z,19.10
2022-08-27T01:11:30.933Z,21.75
2022-08-27T01:14:00.917Z,18.38
2022-08-27T01:16:18.345Z,20.40
2022-08-27T01:18:36.332Z,17.40
2022-08-27T01:20:53.297Z,17.35
2022-08-27T01:23:10.587Z,18.17
2022-08-27T01:25:28.861Z,15.52
2022-08-27T01:27:45.834Z,13.82
2022-08-27T01:30:04.231Z,14.23
2022-08-27T01:32:21.201Z,12.32
2022-08-27T01:34:38.144Z,14.35
2022-08-27T01:36:57.449Z,17.55
2022-08-27T01:39:14.788Z,16.92
2022-08-27T01:41:32.596Z,16.33
2022-08-27T01:43:49.988Z,13.48
2022-08-27T01:46:07.092Z,13.68
2022-08-27T01:48:24.424Z,14.85
2022-08-27T01:50:41.559Z,13.75
2022-08-27T01:52:58.580Z,13.30
2022-08-27T01:55:15.901Z,13.95
2022-08-27T01:57:33.205Z,16.42
2022-08-27T01:59:50.497Z,14.10
2022-08-27T02:02:07.909Z,14.52
2022-08-27T02:04:25.283Z,11.88
2022-08-27T02:06:42.620Z,14.57
2022-08-27T02:08:59.927Z,13.43
2022-08-27T02:11:17.244Z,15.88
2022-08-27T02:13:34.204Z,15.25
2022-08-27T02:15:51.414Z,14.10
2022-08-27T02:18:08.489Z,12.98
2022-08-27T02:20:25.579Z,19.23
2022-08-27T02:22:46.471Z,16.77
2022-08-27T02:25:05.574Z,19.05
2022-08-27T02:27:27.270Z,16.30
2022-08-27T02:29:44.568Z,18.20
2022-08-27T02:32:04.009Z,15.57
2022-08-27T02:34:22.111Z,13.32
2022-08-27T02:36:39.420Z,15.32
2022-08-27T02:38:58.604Z,16.60
2022-08-27T02:41:15.931Z,17.90
2022-08-27T02:43:33.318Z,19.35
2022-08-27T02:45:52.669Z,21.02
2022-08-27T02:48:10.109Z,19.60
2022-08-27T02:50:27.709Z,21.42
2022-08-27T02:52:44.744Z,22.60
2022-08-27T02:55:03.911Z,25.35
2022-08-27T02:57:22.363Z,24.33
2022-08-27T02:59:39.691Z,23.45
2022-08-27T03:01:56.943Z,19.15
2022-08-27T03:04:14.036Z,19.67
2022-08-27T03:06:32.150Z,22.88
2022-08-27T03:08:52.209Z,22.20
2022-08-27T03:11:10.592Z,22.25
2022-08-27T03:13:28.502Z,21.30
2022-08-27T03:15:45.879Z,23.63
2022-08-27T03:18:03.294Z,25.33
2022-08-27T03:20:20.439Z,30.63
2022-08-27T03:22:37.449Z,31.27
2022-08-27T03:24:55.841Z,27.95
2022-08-27T03:27:12.887Z,26.83
2022-08-27T03:29:30.276Z,28.50
2022-08-27T03:31:53.477Z,31.60
2022-08-27T03:34:10.661Z,28.27
2022-08-27T03:36:27.978Z,30.20
2022-08-27T03:38:45.026Z,31.50
2022-08-27T03:41:02.353Z,32.33
2022-08-27T03:43:19.434Z,32.78
2022-08-27T03:45:56.599Z,33.00
2022-08-27T03:48:14.056Z,32.72
2022-08-27T03:50:31.110Z,34.83
2022-08-27T03:52:48.048Z,40.10
2022-08-27T03:55:05.367Z,34.85
2022-08-27T03:57:23.528Z,37.10
2022-08-27T03:59:40.536Z,39.03
2022-08-27T04:01:57.696Z,36.60
2022-08-27T04:04:16.035Z,39.55
2022-08-27T04:06:34.361Z,41.22
2022-08-27T04:08:51.418Z,43.50
2022-08-27T04:11:08.780Z,42.33
2022-08-27T04:13:25.861Z,40.67
2022-08-27T04:15:42.923Z,46.50
2022-08-27T04:17:59.915Z,44.53
2022-08-27T04:20:34.657Z,44.83
2022-08-27T04:22:53.001Z,46.20
2022-08-27T04:25:09.917Z,53.17
2022-08-27T04:27:28.643Z,49.17
2022-08-27T04:29:45.687Z,52.25
2022-08-27T04:32:04.807Z,52.40
2022-08-27T04:34:21.744Z,48.38
2022-08-27T04:36:39.053Z,53.83
2022-08-27T04:38:56.087Z,50.33
2022-08-27T04:41:13.176Z,46.53
2022-08-27T04:43:32.788Z,57.92
2022-08-27T04:45:49.877Z,52.85
2022-08-27T04:48:07.854Z,50.53
2022-08-27T04:50:25.103Z,54.63
2022-08-27T04:52:42.371Z,56.72
2022-08-27T04:55:00.340Z,56.33
2022-08-27T04:57:17.457Z,52.08
2022-08-27T04:59:34.552Z,59.35
2022-08-27T05:01:51.526Z,54.20
2022-08-27T05:04:09.192Z,57.80
2022-08-27T05:06:26.115Z,61.92
2022-08-27T05:08:43.488Z,61.00
2022-08-27T05:11:00.585Z,62.05
2022-08-27T05:13:17.544Z,53.65
2022-08-27T05:15:34.886Z,63.05
2022-08-27T05:17:52.013Z,62.88
2022-08-27T05:20:09.085Z,59.40
2022-08-27T05:22:26.076Z,61.08
2022-08-27T05:24:45.942Z,61.33
2022-08-27T05:27:05.583Z,64.05
2022-08-27T05:29:22.761Z,58.92
2022-08-27T05:31:39.718Z,60.78
2022-08-27T05:33:56.696Z,58.65
2022-08-27T05:36:15.678Z,55.42
2022-08-27T05:38:34.026Z,61.10
2022-08-27T05:40:51.359Z,57.28
2022-08-27T05:43:08.497Z,55.38
2022-08-27T05:45:25.528Z,57.22
2022-08-27T05:47:44.911Z,54.85
2022-08-27T05:50:02.093Z,54.85
2022-08-27T05:52:19.376Z,50.67
2022-08-27T05:54:36.502Z,49.55
2022-08-27T05:56:53.803Z,46.25
2022-08-27T05:59:10.757Z,56.80
2022-08-27T06:01:28.128Z,48.70
2022-08-27T06:03:45.240Z,53.78
2022-08-27T06:06:03.398Z,58.55
2022-08-27T06:08:20.372Z,52.10
2022-08-27T06:10:37.613Z,55.05
2022-08-27T06:12:57.027Z,50.80
2022-08-27T06:15:14.588Z,48.40
2022-08-27T06:17:31.931Z,49.15
2022-08-27T06:19:49.218Z,47.20
2022-08-27T06:22:10.550Z,49.72
2022-08-27T06:24:28.287Z,51.05
2022-08-27T06:26:45.260Z,43.45
2022-08-27T06:29:02.228Z,48.92
2022-08-27T06:31:19.450Z,44.90
2022-08-27T06:33:36.449Z,47.63
2022-08-27T06:35:53.813Z,42.13
2022-08-27T06:38:10.996Z,45.13
2022-08-27T06:40:28.104Z,41.80
2022-08-27T06:42:45.235Z,40.47
2022-08-27T06:45:02.607Z,42.90
2022-08-27T06:47:21.244Z,43.85
2022-08-27T06:49:38.353Z,46.67
2022-08-27T06:51:55.290Z,45.05
2022-08-27T06:54:12.635Z,46.13
2022-08-27T06:56:29.653Z,45.15
2022-08-27T06:58:46.699Z,39.58
2022-08-27T07:01:04.046Z,39.70
2022-08-27T07:03:21.444Z,44.30
2022-08-27T07:05:38.505Z,39.47
2022-08-27T07:07:55.818Z,39.53
2022-08-27T07:10:13.130Z,38.63
2022-08-27T07:12:30.878Z,37.33
2022-08-27T07:14:49.131Z,35.08
2022-08-27T07:17:10.747Z,37.72
2022-08-27T07:19:28.696Z,31.85
2022-08-27T07:21:46.039Z,30.80
2022-08-27T07:24:03.131Z,31.08
2022-08-27T07:26:20.220Z,32.97
2022-08-27T07:28:38.141Z,30.42
2022-08-27T07:30:55.179Z,31.15
2022-08-27T07:33:13.363Z,30.27
2022-08-27T07:35:30.614Z,31.35
2022-08-27T07:37:47.669Z,28.17
2022-08-27T07:40:04.719Z,30.13
2022-08-27T07:42:21.652Z,25.63
2022-08-27T07:44:39.131Z,28.27
2022-08-27T07:46:57.583Z,26.83
2022-08-27T07:49:15.923Z,28.13
2022-08-27T07:51:33.250Z,28.17
2022-08-27T07:53:50.355Z,32.90
2022-08-27T07:56:07.335Z,33.47
2022-08-27T07:58:24.678Z,27.52
2022-08-27T08:00:41.714Z,31.08
2022-08-27T08:02:59.072Z,26.23
2022-08-27T08:05:16.086Z,24.08
2022-08-27T08:07:33.374Z,25.52
2022-08-27T08:09:51.357Z,26.48
2022-08-27T08:12:08.464Z,21.27
2022-08-27T08:14:25.714Z,24.38
2022-08-27T08:16:42.767Z,20.77
2022-08-27T08:18:59.774Z,22.13
2022-08-27T08:21:16.779Z,20.45
2022-08-27T08:23:33.790Z,18.25
2022-08-27T08:25:50.856Z,21.08
2022-08-27T08:28:08.878Z,22.45
2022-08-27T08:30:26.923Z,21.45
2022-08-27T08:32:48.581Z,20.60
2022-08-27T08:35:06.550Z,21.08
2022-08-27T08:37:23.697Z,20.92
2022-08-27T08:39:41.044Z,19.40
2022-08-27T08:41:59.387Z,19.48
2022-08-27T08:44:16.492Z,19.67
2022-08-27T08:46:33.531Z,18.83
2022-08-27T08:48:50.530Z,19.23
2022-08-27T08:51:08.807Z,22.67
2022-08-27T08:53:25.762Z,22.77
2022-08-27T08:55:42.788Z,21.48
2022-08-27T08:58:00.087Z,21.40
2022-08-27T09:00:17.194Z,23.63
2022-08-27T09:02:34.366Z,22.05
2022-08-27T09:04:51.711Z,23.58
2022-08-27T09:07:08.674Z,19.70
2022-08-27T09:09:26.014Z,19.63
2022-08-27T09:11:43.361Z,20.00
2022-08-27T09:14:00.657Z,22.30
2022-08-27T09:16:17.654Z,25.45
2022-08-27T09:18:35.609Z,24.58
2022-08-27T09:20:53.192Z,29.95
2022-08-27T09:23:12.229Z,30.50
2022-08-27T09:25:29.532Z,29.70
2022-08-27T09:27:46.617Z,32.35
2022-08-27T09:30:03.961Z,31.73
2022-08-27T09:32:21.109Z,31.13
2022-08-27T09:34:38.035Z,31.85
2022-08-27T09:36:55.363Z,33.35
2022-08-27T09:39:12.555Z,34.92
2022-08-27T09:41:29.950Z,36.38
2022-08-27T09:43:46.983Z,32.58
2022-08-27T09:46:03.987Z,34.40
2022-08-27T09:48:21.021Z,32.42
2022-08-27T09:50:42.964Z,32.72
2022-08-27T09:53:00.948Z,31.30
2022-08-27T09:55:18.111Z,33.05
2022-08-27T09:57:39.520Z,34.78
2022-08-27T09:59:56.918Z,34.40
2022-08-27T10:02:14.353Z,38.20
2022-08-27T10:04:31.769Z,40.85
2022-08-27T10:06:51.252Z,36.65
2022-08-27T10:09:08.790Z,39.10
2022-08-27T10:11:25.961Z,38.60
2022-08-27T10:13:43.157Z,41.58
2022-08-27T10:16:00.413Z,44.08
2022-08-27T10:18:18.865Z,40.70
2022-08-27T10:20:36.146Z,39.60
2022-08-27T10:22:53.196Z,38.08
2022-08-27T10:25:10.174Z,35.05
2022-08-27T10:27:27.570Z,36.90
2022-08-27T10:29:45.623Z,37.88
2022-08-27T10:32:03.048Z,34.65
2022-08-27T10:34:20.400Z,38.13
2022-08-27T10:36:41.895Z,35.85
2022-08-27T10:38:59.236Z,39.58
2022-08-27T10:41:16.502Z,38.83
2022-08-27T10:43:33.709Z,37.40
2022-08-27T10:45:51.092Z,39.17
2022-08-27T10:48:08.301Z,38.30
2022-08-27T10:50:25.836Z,34.78
2022-08-27T10:52:44.197Z,35.75
2022-08-27T10:55:01.778Z,33.10
2022-08-27T10:57:35.705Z,33.15
2022-08-27T10:59:57.284Z,33.45
2022-08-27T11:02:14.432Z,34.70
2022-08-27T11:04:31.674Z,32.53
2022-08-27T11:06:48.683Z,34.25
2022-08-27T11:09:07.936Z,28.90
2022-08-27T11:12:10.529Z,27.67
2022-08-27T11:14:04.073Z,32.65
2022-08-27T11:16:21.143Z,33.88
2022-08-27T11:18:38.548Z,33.60
2022-08-27T11:20:55.501Z,37.97
2022-08-27T11:23:12.522Z,35.90
2022-08-27T11:25:29.700Z,38.03
2022-08-27T11:27:48.204Z,38.70
2022-08-27T11:30:05.162Z,43.78
2022-08-27T11:32:22.596Z,40.03
2022-08-27T11:34:39.673Z,45.40
2022-08-27T11:36:56.958Z,44.42
2022-08-27T11:39:14.011Z,41.97
2022-08-27T11:41:36.870Z,43.67
2022-08-27T11:44:02.169Z,43.15
2022-08-27T11:46:19.259Z,43.88
2022-08-27T11:48:42.112Z,47.78
2022-08-27T11:50:59.075Z,47.20
2022-08-27T11:53:16.125Z,46.35
2022-08-27T11:55:33.117Z,43.63
2022-08-27T11:57:50.430Z,42.15
2022-08-27T12:00:10.561Z,42.95
2022-08-27T12:02:27.571Z,42.85
2022-08-27T12:04:44.684Z,42.00
2022-08-27T12:07:04.792Z,40.70
2022-08-27T12:09:22.287Z,43.05
2022-08-27T12:11:39.413Z,40.25
2022-08-27T12:13:56.720Z,38.65
2022-08-27T12:16:13.737Z,37.15
2022-08-27T12:18:30.877Z,39.33
2022-08-27T12:20:47.944Z,38.33
2022-08-27T12:23:04.995Z,39.65
2022-08-27T12:25:22.456Z,39.38
2022-08-27T12:27:39.531Z,37.13
2022-08-27T12:29:56.652Z,34.00
2022-08-27T12:32:13.754Z,35.42
2022-08-27T12:34:30.896Z,34.88
2022-08-27T12:36:47.889Z,31.50
2022-08-27T12:39:04.991Z,34.05
2022-08-27T12:41:22.308Z,32.00
2022-08-27T12:43:39.644Z,29.67
2022-08-27T12:45:56.711Z,26.65
2022-08-27T12:48:13.706Z,25.98
2022-08-27T12:50:30.776Z,26.58
2022-08-27T12:52:47.775Z,31.02
2022-08-27T12:55:04.792Z,28.90
2022-08-27T12:57:23.096Z,25.17
2022-08-27T12:59:40.188Z,24.92
2022-08-27T13:01:57.397Z,22.77
2022-08-27T13:04:14.536Z,23.38
2022-08-27T13:06:31.493Z,26.88
2022-08-27T13:08:49.818Z,27.38
2022-08-27T13:11:08.690Z,25.25
2022-08-27T13:13:30.983Z,27.35
2022-08-27T13:15:52.660Z,24.45
2022-08-27T13:18:09.761Z,21.92
2022-08-27T13:20:26.931Z,25.70
2022-08-27T13:22:43.992Z,22.52
2022-08-27T13:25:01.349Z,24.40
2022-08-27T13:27:18.663Z,25.33
2022-08-27T13:29:36.046Z,21.70
2022-08-27T13:31:53.065Z,24.90
2022-08-27T13:34:10.001Z,25.88
2022-08-27T13:36:26.959Z,24.05
2022-08-27T13:38:50.056Z,23.48
2022-08-27T13:41:07.462Z,25.90
2022-08-27T13:43:24.765Z,24.58
2022-08-27T13:45:44.568Z,26.40
2022-08-27T13:48:01.500Z,27.63
2022-08-27T13:50:18.815Z,27.00
2022-08-27T13:52:36.166Z,26.38
2022-08-27T13:54:53.914Z,26.23
2022-08-27T13:57:10.988Z,28.20
2022-08-27T13:59:28.101Z,28.13
2022-08-27T14:01:45.255Z,27.08
2022-08-27T14:04:02.618Z,26.38
2022-08-27T14:06:19.747Z,25.30
2022-08-27T14:08:37.058Z,23.92
2022-08-27T14:10:54.314Z,23.58
2022-08-27T14:13:11.361Z,25.33
2022-08-27T14:15:28.413Z,25.98
2022-08-27T14:17:45.515Z,23.05
2022-08-27T14:20:02.848Z,24.13
2022-08-27T14:22:21.515Z,21.33
2022-08-27T14:24:38.572Z,20.52
2022-08-27T14:26:55.649Z,21.85
2022-08-27T14:29:12.615Z,24.25
2022-08-27T14:31:30.109Z,21.33
2022-08-27T14:33:47.144Z,19.17
2022-08-27T14:36:04.188Z,20.90
2022-08-27T14:38:21.509Z,18.25
2022-08-27T14:40:38.644Z,18.42
2022-08-27T14:42:56.278Z,17.55
2022-08-27T14:45:13.206Z,17.20
2022-08-27T14:47:33.579Z,18.27
2022-08-27T14:49:50.774Z,18.85
2022-08-27T14:52:08.105Z,17.58
2022-08-27T14:54:29.104Z,15.70
2022-08-27T14:56:50.501Z,16.73
2022-08-27T14:59:07.439Z,15.32
2022-08-27T15:01:24.553Z,15.38
2022-08-27T15:03:41.890Z,15.07
2022-08-27T15:05:59.018Z,14.55
2022-08-27T15:08:16.356Z,15.35
2022-08-27T15:10:34.635Z,13.15
2022-08-27T15:12:51.621Z,15.95
2022-08-27T15:15:08.915Z,17.60
2022-08-27T15:17:35.460Z,16.42
2022-08-27T15:19:52.631Z,15.07
2022-08-27T15:22:12.003Z,15.85
2022-08-27T15:24:32.308Z,15.30
2022-08-27T15:26:49.558Z,17.38
2022-08-27T15:29:06.960Z,15.98
2022-08-27T15:31:24.058Z,13.38
2022-08-27T15:33:42.407Z,14.50
2022-08-27T15:36:03.829Z,14.45
2022-08-27T15:38:21.501Z,13.95
2022-08-27T15:40:38.563Z,14.07
2022-08-27T15:42:55.914Z,13.60
2022-08-27T15:45:13.166Z,14.93
2022-08-27T15:47:30.239Z,13.23
2022-08-27T15:49:47.293Z,14.00
2022-08-27T15:52:04.665Z,14.48
2022-08-27T15:54:22.196Z,15.40
2022-08-27T15:56:39.244Z,13.52
2022-08-27T15:58:56.294Z,13.88
2022-08-27T16:01:13.683Z,13.02
2022-08-27T16:03:35.666Z,14.77
2022-08-27T16:05:53.224Z,15.02
2022-08-27T16:08:10.689Z,17.13
2022-08-27T16:10:27.693Z,12.50
2022-08-27T16:12:44.656Z,12.93
2022-08-27T16:15:01.923Z,11.95
2022-08-27T16:17:18.957Z,13.63
2022-08-27T16:19:36.992Z,16.20
2022-08-27T16:21:54.310Z,13.32
2022-08-27T16:24:11.357Z,17.70
2022-08-27T16:26:28.358Z,12.82
2022-08-27T16:28:45.244Z,12.57
2022-08-27T16:31:02.216Z,12.77
2022-08-27T16:33:20.172Z,13.00
2022-08-27T16:35:37.222Z,14.25
2022-08-27T16:37:54.181Z,12.05
2022-08-27T16:40:11.255Z,11.93
2022-08-27T16:42:28.341Z,15.35
2022-08-27T16:44:45.371Z,12.20
2022-08-27T16:47:02.345Z,12.73
2022-08-27T16:49:19.306Z,12.32
2022-08-27T16:51:36.610Z,12.20
2022-08-27T16:53:53.687Z,11.88
2022-08-27T16:56:10.743Z,12.38
2022-08-27T16:58:30.919Z,13.90
2022-08-27T17:00:49.005Z,13.65
2022-08-27T17:03:06.002Z,13.43
2022-08-27T17:05:38.251Z,11.52
2022-08-27T17:07:55.562Z,13.35
2022-08-27T17:10:12.827Z,12.07
2022-08-27T17:12:29.822Z,14.73
2022-08-27T17:14:48.415Z,10.30
2022-08-27T17:17:05.689Z,11.10
2022-08-27T17:19:22.945Z,11.48
2022-08-27T17:21:40.021Z,11.63
2022-08-27T17:24:02.046Z,12.18
2022-08-27T17:26:19.352Z,12.63
2022-08-27T17:28:36.304Z,11.70
2022-08-27T17:30:53.637Z,12.43
2022-08-27T17:33:10.682Z,14.27
2022-08-27T17:35:27.767Z,13.20
2022-08-27T17:37:45.011Z,12.23
2022-08-27T17:40:02.166Z,11.82
2022-08-27T17:42:19.172Z,12.63
2022-08-27T17:44:36.287Z,14.10
2022-08-27T17:46:53.340Z,13.27
2022-08-27T17:49:10.292Z,15.60
2022-08-27T17:51:27.578Z,15.63
2022-08-27T17:53:44.874Z,15.52
2022-08-27T17:56:01.910Z,16.58
2022-08-27T17:58:18.898Z,15.73
2022-08-27T18:00:35.932Z,15.55
2022-08-27T18:02:52.963Z,16.52
2022-08-27T18:05:10.165Z,17.55
2022-08-27T18:07:27.264Z,16.42
2022-08-27T18:09:44.540Z,14.15
2022-08-27T18:12:01.452Z,14.70
2022-08-27T18:14:19.636Z,15.55
2022-08-27T18:16:36.934Z,13.43
2022-08-27T18:18:53.873Z,16.00
2022-08-27T18:21:11.101Z,16.25
2022-08-27T18:23:28.358Z,14.45
2022-08-27T18:25:45.676Z,14.18
2022-08-27T18:28:02.654Z,12.52
2022-08-27T18:30:19.694Z,16.02
2022-08-27T18:32:36.671Z,14.88
2022-08-27T18:34:53.922Z,14.80
2022-08-27T18:37:11.332Z,13.70
2022-08-27T18:39:28.398Z,13.23
2022-08-27T18:41:46.447Z,12.52
2022-08-27T18:44:03.501Z,14.77
2022-08-27T18:46:20.566Z,14.60
2022-08-27T18:48:38.597Z,13.38
2022-08-27T18:50:55.573Z,15.82
2022-08-27T18:53:12.592Z,13.48
2022-08-27T18:55:29.945Z,12.82
2022-08-27T18:57:47.246Z,12.88
2022-08-27T19:00:04.278Z,14.30
2022-08-27T19:02:21.446Z,14.98
2022-08-27T19:04:38.606Z,15.68
2022-08-27T19:06:55.901Z,15.45
2022-08-27T19:09:13.235Z,19.42
2022-08-27T19:11:30.470Z,16.27
2022-08-27T19:13:50.434Z,17.65
2022-08-27T19:16:08.835Z,14.65
2022-08-27T19:18:27.144Z,14.88
2022-08-27T19:20:44.435Z,18.92
2022-08-27T19:23:01.422Z,17.33
2022-08-27T19:25:18.500Z,16.25
2022-08-27T19:27:35.535Z,18.50
2022-08-27T19:29:52.883Z,15.93
2022-08-27T19:32:10.970Z,16.60
2022-08-27T19:34:28.078Z,15.32
2022-08-27T19:36:45.122Z,14.90
2022-08-27T19:39:02.214Z,16.15
2022-08-27T19:41:19.497Z,18.88
2022-08-27T19:43:36.462Z,19.92
2022-08-27T19:45:53.865Z,19.92
2022-08-27T19:48:11.646Z,20.90
2022-08-27T19:50:29.078Z,17.63
2022-08-27T19:52:46.393Z,16.92
2022-08-27T19:55:13.512Z,16.33
2022-08-27T19:57:31.709Z,23.58
2022-08-27T19:59:48.679Z,21.15
2022-08-27T20:02:05.607Z,18.75
2022-08-27T20:04:22.711Z,24.50
2022-08-27T20:06:39.804Z,19.65
2022-08-27T20:08:56.891Z,18.70
2022-08-27T20:11:14.035Z,19.13
2022-08-27T20:13:33.189Z,17.05
2022-08-27T20:15:50.321Z,21.73
2022-08-27T20:18:07.575Z,22.27
2022-08-27T20:20:26.166Z,17.70
2022-08-27T20:22:44.452Z,21.35
2022-08-27T20:25:01.491Z,21.23
2022-08-27T20:27:18.764Z,18.45
2022-08-27T20:29:35.817Z,16.65
2022-08-27T20:31:52.961Z,18.70
2022-08-27T20:34:10.069Z,17.73
2022-08-27T20:36:27.356Z,19.40
2022-08-27T20:38:44.393Z,18.67
2022-08-27T20:41:01.673Z,20.27
2022-08-27T20:43:18.956Z,22.20
2022-08-27T20:45:35.963Z,17.95
2022-08-27T20:47:53.022Z,21.75
2022-08-27T20:50:09.988Z,19.83
2022-08-27T20:52:29.287Z,25.05
2022-08-27T20:54:46.343Z,25.75
2022-08-27T20:57:03.418Z,22.20
2022-08-27T20:59:23.449Z,25.38
2022-08-27T21:01:40.459Z,23.73
2022-08-27T21:03:57.578Z,22.42
2022-08-27T21:06:14.547Z,23.63
2022-08-27T21:08:31.556Z,24.77
2022-08-27T21:10:48.855Z,23.00
2022-08-27T21:13:08.878Z,22.02
2022-08-27T21:15:28.022Z,21.23
2022-08-27T21:17:44.957Z,26.05
2022-08-27T21:20:01.940Z,21.67
2022-08-27T21:22:19.026Z,26.25
2022-08-27T21:24:36.151Z,19.98
2022-08-27T21:26:53.326Z,28.23
2022-08-27T21:29:10.359Z,19.88
2022-08-27T21:31:27.418Z,20.17
2022-08-27T21:33:44.432Z,26.40
2022-08-27T21:36:01.782Z,20.65
2022-08-27T21:38:19.023Z,21.02
2022-08-27T21:40:36.555Z,22.15
2022-08-27T21:42:53.956Z,23.60
2022-08-27T21:45:11.300Z,23.23
2022-08-27T21:47:29.391Z,22.65
2022-08-27T21:49:46.628Z,20.55
2022-08-27T21:52:03.657Z,23.00
2022-08-27T21:54:21.640Z,21.15
2022-08-27T21:56:43.329Z,18.83
2022-08-27T21:59:00.294Z,21.80
2022-08-27T22:01:17.305Z,17.88
2022-08-27T22:03:35.360Z,22.52
2022-08-27T22:05:52.381Z,24.50
2022-08-27T22:08:09.422Z,19.73
2022-08-27T22:10:26.483Z,18.52
2022-08-27T22:12:47.001Z,20.08
2022-08-27T22:15:04.319Z,19.38
2022-08-27T22:17:21.388Z,19.25
2022-08-27T22:19:38.369Z,18.63
2022-08-27T22:21:55.422Z,20.75
2022-08-27T22:24:12.413Z,22.95
2022-08-27T22:26:29.712Z,18.77
2022-08-27T22:28:47.044Z,23.67
2022-08-27T22:31:04.148Z,20.10
2022-08-27T22:33:21.186Z,23.52
2022-08-27T22:35:38.508Z,19.33
2022-08-27T22:37:55.475Z,20.17
2022-08-27T22:40:19.260Z,24.73
2022-08-27T22:42:38.418Z,22.23
2022-08-27T22:44:57.474Z,21.00
2022-08-27T22:47:14.847Z,20.75
2022-08-27T22:49:32.144Z,20.02
2022-08-27T22:51:49.452Z,20.92
2022-08-27T22:54:06.687Z,21.88
2022-08-27T22:56:24.673Z,22.08
2022-08-27T22:58:45.802Z,18.35
2022-08-27T23:01:03.689Z,19.88
2022-08-27T23:03:21.051Z,16.55
2022-08-27T23:05:40.550Z,17.63
2022-08-27T23:07:59.586Z,17.30
2022-08-27T23:10:16.661Z,18.92
2022-08-27T23:12:33.740Z,22.17
2022-08-27T23:14:55.880Z,17.52
2022-08-27T23:17:13.192Z,16.58
2022-08-27T23:19:30.564Z,17.17
2022-08-27T23:21:47.910Z,14.75
2022-08-27T23:24:04.862Z,19.33
2022-08-27T23:26:21.936Z,18.75
2022-08-27T23:28:39.465Z,18.00
2022-08-27T23:30:56.487Z,16.33
2022-08-27T23:33:13.647Z,18.05
2022-08-27T23:35:30.996Z,19.45
2022-08-27T23:37:47.952Z,22.85
2022-08-27T23:40:05.313Z,19.90
2022-08-27T23:42:22.453Z,19.23
2022-08-27T23:44:39.610Z,19.42
2022-08-27T23:46:56.818Z,19.38
2022-08-27T23:49:13.955Z,17.13
2022-08-27T23:51:31.113Z,17.95
2022-08-27T23:53:48.460Z,16.25
2022-08-27T23:56:05.826Z,17.70
2022-08-27T23:58:23.958Z,20.20
